AirNav   Air Wisconsin Up To $57,000 Bonus
 
 382 users online  

LS74 Utec Heliport
Lake Charles, Louisiana, USA

GOING TO LAKE CHARLES?


FAA INFORMATION EFFECTIVE 08 SEPTEMBER 2022

Location

FAA Identifier: LS74
Lat/Long: 30-13-36.7410N 093-11-59.5520W
30-13.612350N 093-11.992533W
30.2268725,-93.1998756
(estimated)
Elevation: 10 ft. / 3 m (estimated)
Variation: 05E (1985)
Time zone: UTC -5 (UTC -6 during Standard Time)
Zip code: 70601

Heliport Operations

Heliport use: Private use. Permission required prior to landing
Activation date: 08/1990
Control tower: no
ARTCC: HOUSTON CENTER
FSS: DE RIDDER FLIGHT SERVICE STATION
Attendance: UNATNDD
Segmented circle: no

Heliport Communications

WX AWOS-3 at CWF (3 nm E): 120.0 (337-436-3452)
WX ASOS at LCH (6 nm S): PHONE 337-477-3371
WX AWOS-3PT at UXL (11 nm SW): 118.175 (337-558-5321)
WX AWOS-3PT at 5R8 (19 nm NW): 121.2 (337-786-1518)

Nearby radio navigation aids

VOR radial/distance  VOR name  Freq  Var
LCHr309/7.1LAKE CHARLES VORTAC113.4007E

 
NDB name  Hdg/Dist  Freq  Var  ID
MOSSY178/4.841804ECW -.-. .--
SULPHUR078/11.627804EAUR .- ..- .-.
DE RIDDER164/32.338504EDXB -.. -..- -...

Heliport Services

Runway Information

Helipad H1

Dimensions: 30 x 30 ft. / 9 x 9 m
Surface: turf
Traffic pattern: leftleft

Heliport Ownership and Management from official FAA records

Ownership: Privately-owned
Owner: PHILLIP A GUZZINO
1432 BROAD ST.
LAKE CHARLES, LA 70601
Phone 337-433-5361
Manager: PHILLIP A GUZZINO
1432 BROAD ST.
LAKE CHARLES, LA 70601
Phone 337-433-5361
OTHER 337-540-1485

Additional Remarks

A52-H1 60' PLINE WEST OF HELIPAD.
FOR CD CTC LAKE CHARLES APCH AT 337-480-3103, WHEN APCH CLSD CTC HOUSTON ARTCC AT 281-230-5622.

Instrument Procedures

There are no published instrument procedures at LS74.

Some nearby airports with instrument procedures:

KCWF - Chennault International Airport (3 nm E)
KLCH - Lake Charles Regional Airport (6 nm S)
KUXL - Southland Field Airport (11 nm SW)
5R8 - De Quincy Industrial Airpark (19 nm NW)
6R1 - Welsh Airport (19 nm E)
 
Loc | Ops | Rwys | IFR | FBO | Links
Com | Nav | Svcs | Stats | Notes
Area around LS74 (Utec Heliport)
 
Road maps at: MapQuest Bing Google
 
Aerial photo
No photo
 
Sectional chart

 
Airport distance calculator
Flying to Utec Heliport? Find the distance to fly.

From to LS74

Sunrise and sunset
Times for 02-Oct-2022
 Local
(UTC-5)
 Zulu
(UTC)
Morning civil twilight06:4411:44
Sunrise07:0812:08
Sunset18:5723:57
Evening civil twilight19:2000:20

Current date and time
Zulu (UTC)  02-Oct-2022 09:04:23
Local (UTC-5)  02-Oct-2022 04:04:23
 
METAR
KCWF 
3nm E 
020855Z AUTO 02005KT 10SM CLR 15/09 A3006 RMK AO2 T01480087
KLCH 
6nm S 
020853Z AUTO 02005KT 10SM CLR 13/08 A3006 RMK AO2 SLP187 T01330083 50002
KUXL 
11nm SW 
020855Z AUTO 00000KT 10SM CLR 12/08 A3008 RMK AO2 T01200079
K5R8 
19nm NW 
020835Z AUTO 00000KT 10SM CLR 10/08 A3008 RMK AO2 T01010083
TAF
KLCH 
6nm S 
020520Z 0206/0306 VRB04KT P6SM SKC FM021500 04007KT P6SM SKC FM030100 VRB03KT P6SM SKC
NOTAMs
Click for the latest NOTAMs
NOTAMs are issued by the DoD/FAA and will open in a separate window not controlled by AirNav.

 

 
 

Would you like to see your business listed on this page?

 If your business provides an interesting product or service to pilots, flight crews, aircraft, or users of the Utec Heliport, you should consider listing it here.  To start the listing process, click on the button below
 
Add a business
 

Other Pages about Utec Heliport

Update a link
 
Copyright © AirNav, LLC. All rights reserved. Privacy Policy  Contact